Date,TemperatureHighF,TemperatureAvgF,TemperatureLowF,DewpointHighF,DewpointAvgF,DewpointLowF,HumidityHigh,HumidityAvg,HumidityLow,PressureMaxIn,PressureMinIn,WindSpeedMaxMPH,WindSpeedAvgMPH,GustSpeedMaxMPH,PrecipitationSumIn
2013-1-1,84,73,65,64,62,58,94,69,50,30.14,29.99,16,1,16,0.00
2013-1-2,84,72,61,71,66,61,100,83,50,30.03,29.93,9,1,9,0.00
2013-1-3,85,73,66,71,68,64,100,85,54,30.07,29.96,8,1,8,0.03
2013-1-4,86,73,65,75,70,65,100,91,60,30.16,30.04,10,1,10,0.00
2013-1-5,81,71,67,74,69,67,100,96,76,30.19,30.09,9,1,9,0.03
2013-1-6,84,74,65,76,70,65,100,90,66,30.13,30.00,11,1,11,0.00
2013-1-7,79,71,66,72,70,66,100,94,69,30.10,30.01,7,1,7,0.01
2013-1-8,84,75,69,77,72,69,100,91,67,30.14,30.01,12,2,12,0.00
2013-1-9,85,78,74,74,72,69,94,83,66,30.21,30.09,15,4,17,0.00
2013-1-10,83,76,71,72,68,60,91,76,46,30.23,30.11,16,3,16,0.01
2013-1-11,84,75,70,71,69,67,98,81,60,30.19,30.09,14,3,14,0.00
2013-1-12,84,74,66,72,69,66,100,83,59,30.12,30.03,13,2,13,0.00
2013-1-13,85,74,66,70,67,61,100,79,50,30.06,30.00,14,2,14,0.00
2013-1-14,84,72,64,67,65,62,100,80,51,30.11,30.05,14,1,14,0.00
2013-1-15,83,72,65,72,67,65,100,87,61,30.07,29.99,12,1,12,0.00
2013-1-16,84,71,62,74,68,62,100,89,62,30.04,29.95,12,1,12,0.00
2013-1-17,82,71,60,75,67,54,100,89,69,30.04,29.91,18,2,18,0.00
2013-1-18,74,64,54,61,54,48,85,72,57,30.17,30.04,13,3,13,0.00
2013-1-19,73,68,63,71,65,58,100,91,67,30.16,30.03,7,1,7,0.16
2013-1-20,84,71,64,72,67,64,100,89,55,30.08,29.94,10,1,10,0.24
2013-1-21,84,72,66,74,69,66,100,90,64,30.01,29.90,13,1,13,0.24
2013-1-22,78,68,61,66,61,56,100,80,55,30.15,29.95,16,3,16,0.02
2013-1-23,78,66,60,61,57,53,92,73,44,30.23,30.13,12,2,12,0.00
2013-1-24,80,66,57,58,55,48,96,69,42,30.23,30.13,13,2,13,0.00
2013-1-25,80,66,56,61,57,53,98,74,44,30.23,30.11,11,2,11,0.00
2013-1-26,82,67,57,63,60,53,100,80,47,30.19,30.10,10,1,10,0.01
2013-1-27,81,70,60,65,62,60,100,78,52,30.22,30.13,14,2,14,0.02
2013-1-28,84,75,68,68,65,62,87,71,50,30.25,30.16,16,3,16,0.00
2013-1-29,82,74,66,71,68,65,100,82,63,30.17,30.06,13,2,13,0.00
2013-1-30,85,75,69,70,67,64,97,77,56,30.06,29.91,17,2,17,0.00
2013-1-31,72,67,58,72,61,44,100,83,56,30.12,29.89,17,2,17,0.00